Von / Nach
Hinflug - Rückflug
Erwachsene / Kinder
Promocode
Nächste Ankünfte Flughafen St.Gallen-Altenrhein

ZeitErw.vonFlugInfo
09:1009:10WienPE101
planmässig
14:1514:15WienPE103
planmässig
17:3517:35WienPE105
planmässig
Nächste Abflüge Flughafen St.Gallen-Altenrhein

ZeitGeplantnachFlugInfo
06:3006:30WienPE100
abgeflogen
09:5009:50WienPE102
planmässig
14:5514:55WienPE104
planmässig

Flugplan

Bitte wählen Sie Ihren gewünschten Abflug- und Zielflughafen aus.


Live aus Altenrhein
LIVE
LSZR 150520Z 10003KT 8000 BKN007 06/06 Q1027 NOSIG RMK A
Zeitraffer heute
2018-11-15 00:14:13
LSZR 142250Z AUTO 09005KT 070V140 8000 OVC006 07/06 Q1027
Zeitraffer gestern
2018-11-14 00:13:52
LSZR 132250Z AUTO VRB02KT 9999 BKN003 05/04 Q1032

Ibiza

Ab EUR 279.- hin & zurück.

 

Jetzt buchen

Wien

Ab EUR 109.- pro Strecke.

 

Jetzt buchen

Mallorca

Ab EUR 349.- hin & zurück.

 

Jetzt buchen

General Aviation

Business & General Aviation LSZR.

 

More information

Fluggutscheine

Das ideale Weihnachtsgeschenk.

 

Jetzt kaufen

Geschenk an Bord

Überraschen Sie Ihre Liebsten an Bord.

 

Jetzt bestellen

 

 Shuttlebus


Nutzen Sie unseren

Shuttlebus zwischen Altenrhein

und Dornbirn & Bregenz.

 

Mehr dazu

 

People's Online-Shop


Von der Überraschung an

Bord über Badetücher bis

zum Flugzeugmodell.

 

Mehr dazu


News


Aktuelles von People's

und dem Flughafen

St.Gallen-Altenrhein.

 

Mehr dazu

 

Ad-hoc Charter


Chartern Sie eine unserer

Embraer170 für Ihren eigenen

Anlass oder ACMI-Einsätze.


Mehr dazu

  

 

Teile dein People's-Erlebnis mit uns:

 

#peoplesairline bei Instagram